createdAt,value
2022-10-04T00:00:39.440Z,6.93
2022-10-04T00:03:57.507Z,6.95
2022-10-04T00:07:15.472Z,6.98
2022-10-04T00:14:40.232Z,7.10
2022-10-04T00:18:13.246Z,7.17
2022-10-04T00:21:38.457Z,7.22
2022-10-04T00:25:14.856Z,7.28
2022-10-04T00:32:53.354Z,7.46
2022-10-04T00:35:57.517Z,7.57
2022-10-04T00:39:42.954Z,7.68
2022-10-04T00:42:56.758Z,7.77
2022-10-04T00:45:59.281Z,7.83
2022-10-04T00:49:14.365Z,7.85
2022-10-04T00:52:07.809Z,7.86
2022-10-04T00:55:05.942Z,7.85
2022-10-04T00:58:08.437Z,7.80
2022-10-04T01:01:04.614Z,7.73
2022-10-04T01:04:28.734Z,7.67
2022-10-04T01:08:06.657Z,7.64
2022-10-04T01:11:15.515Z,7.62
2022-10-04T01:14:04.777Z,7.63
2022-10-04T01:17:16.805Z,7.66
2022-10-04T01:21:04.344Z,7.66
2022-10-04T01:24:03.352Z,7.65
2022-10-04T01:31:14.391Z,7.67
2022-10-04T01:34:09.449Z,7.67
2022-10-04T01:37:47.496Z,7.63
2022-10-04T01:40:19.353Z,7.58
2022-10-04T01:43:25.795Z,7.56
2022-10-04T01:46:40.354Z,7.56
2022-10-04T01:49:32.673Z,7.60
2022-10-04T01:52:54.835Z,7.67
2022-10-04T01:56:42.810Z,7.78
2022-10-04T02:00:14.787Z,7.86
2022-10-04T02:03:33.838Z,7.91
2022-10-04T02:10:46.470Z,7.97
2022-10-04T02:13:54.410Z,8.00
2022-10-04T02:17:37.945Z,8.04
2022-10-04T02:21:04.936Z,8.07
2022-10-04T02:24:23.650Z,8.13
2022-10-04T02:34:38.965Z,8.26
2022-10-04T02:37:48.289Z,8.21
2022-10-04T02:41:32.961Z,8.13
2022-10-04T02:48:10.991Z,7.93
2022-10-04T02:50:59.518Z,7.85
2022-10-04T02:54:02.968Z,7.77
2022-10-04T02:57:42.479Z,7.71
2022-10-04T03:00:51.558Z,7.67
2022-10-04T03:07:23.101Z,7.62
2022-10-04T03:18:05.502Z,7.58
2022-10-04T03:21:14.417Z,7.53
2022-10-04T03:24:34.338Z,7.50
2022-10-04T03:27:39.205Z,7.46
2022-10-04T03:31:14.571Z,7.45
2022-10-04T03:34:32.420Z,7.43
2022-10-04T03:37:39.473Z,7.42
2022-10-04T03:41:09.878Z,7.42
2022-10-04T03:44:38.063Z,7.42
2022-10-04T03:47:48.539Z,7.41
2022-10-04T03:50:59.857Z,7.36
2022-10-04T03:54:17.615Z,7.32
2022-10-04T03:57:35.459Z,7.27
2022-10-04T04:03:57.479Z,7.14
2022-10-04T04:07:03.575Z,7.11
2022-10-04T04:10:18.442Z,7.11
2022-10-04T04:13:21.623Z,7.13
2022-10-04T04:16:16.511Z,7.17
2022-10-04T04:19:35.534Z,7.23
2022-10-04T04:23:02.604Z,7.29
2022-10-04T04:26:11.432Z,7.34
2022-10-04T04:29:08.601Z,7.37
2022-10-04T04:32:31.662Z,7.39
2022-10-04T04:35:49.484Z,7.38
2022-10-04T04:39:03.651Z,7.36
2022-10-04T04:42:10.541Z,7.32
2022-10-04T04:45:40.615Z,7.28
2022-10-04T04:48:45.574Z,7.23
2022-10-04T04:51:44.297Z,7.19
2022-10-04T04:54:48.072Z,7.15
2022-10-04T04:57:45.539Z,7.15
2022-10-04T05:00:47.637Z,7.19
2022-10-04T05:04:15.888Z,7.26
2022-10-04T05:07:28.547Z,7.35
2022-10-04T05:10:31.514Z,7.46
2022-10-04T05:13:37.461Z,7.58
2022-10-04T05:16:46.546Z,7.71
2022-10-04T05:19:42.586Z,7.85
2022-10-04T05:22:48.514Z,7.93
2022-10-04T05:25:40.003Z,8.01
2022-10-04T05:28:57.876Z,8.11
2022-10-04T05:31:52.583Z,8.13
2022-10-04T05:34:51.534Z,8.17
2022-10-04T05:37:57.489Z,8.21
2022-10-04T05:40:49.575Z,8.27
2022-10-04T05:43:47.552Z,8.36
2022-10-04T05:46:56.611Z,8.49
2022-10-04T05:50:03.432Z,8.59
2022-10-04T05:52:37.573Z,8.67
2022-10-04T05:55:26.839Z,8.75
2022-10-04T05:58:18.313Z,8.83
2022-10-04T06:01:23.933Z,8.94
2022-10-04T06:08:23.426Z,9.16
2022-10-04T06:38:46.937Z,9.90
2022-10-04T06:55:11.686Z,10.63
2022-10-04T06:58:22.983Z,10.75
2022-10-04T07:01:20.166Z,10.83
2022-10-04T07:04:06.342Z,10.78
2022-10-04T07:07:01.577Z,10.74
2022-10-04T07:09:30.288Z,10.76
2022-10-04T07:12:17.206Z,10.82
2022-10-04T07:15:00.175Z,10.88
2022-10-04T07:17:54.055Z,10.90
2022-10-04T07:20:31.357Z,10.85
2022-10-04T07:23:33.800Z,10.77
2022-10-04T07:27:00.703Z,10.73
2022-10-04T07:29:46.055Z,10.63
2022-10-04T07:35:52.438Z,10.55
2022-10-04T07:38:36.179Z,10.59
2022-10-04T07:41:24.473Z,10.65
2022-10-04T07:44:20.784Z,10.69
2022-10-04T07:46:53.117Z,10.73
2022-10-04T07:49:32.199Z,10.75
2022-10-04T07:52:57.627Z,10.75
2022-10-04T07:55:50.376Z,10.72
2022-10-04T07:58:36.533Z,10.68
2022-10-04T08:01:52.343Z,10.60
2022-10-04T08:05:40.330Z,10.61
2022-10-04T08:08:59.344Z,10.55
2022-10-04T08:11:54.915Z,10.52
2022-10-04T08:14:54.811Z,10.51
2022-10-04T08:17:59.132Z,10.57
2022-10-04T08:20:51.419Z,10.70
2022-10-04T08:24:12.050Z,10.80
2022-10-04T08:27:08.226Z,10.92
2022-10-04T08:30:05.658Z,11.05
2022-10-04T08:33:08.660Z,11.24
2022-10-04T08:35:39.756Z,11.30
2022-10-04T08:38:39.420Z,11.26
2022-10-04T08:45:00.211Z,11.32
2022-10-04T08:48:01.758Z,11.30
2022-10-04T08:50:51.259Z,11.25
2022-10-04T08:53:53.226Z,11.28
2022-10-04T09:00:14.492Z,11.47
2022-10-04T09:03:24.117Z,11.67
2022-10-04T09:06:33.707Z,11.84
2022-10-04T09:09:35.001Z,11.94
2022-10-04T09:12:24.705Z,12.05
2022-10-04T09:19:00.614Z,12.19
2022-10-04T09:21:59.767Z,12.21
2022-10-04T09:25:11.596Z,12.27
2022-10-04T09:42:55.200Z,12.80
2022-10-04T09:46:17.405Z,12.87
2022-10-04T09:49:18.025Z,12.86
2022-10-04T09:52:49.904Z,12.79
2022-10-04T09:56:35.767Z,12.63
2022-10-04T09:59:40.036Z,12.47
2022-10-04T10:03:13.496Z,12.43
2022-10-04T10:16:16.419Z,13.15
2022-10-04T10:22:57.633Z,13.29
2022-10-04T10:26:14.460Z,13.52
2022-10-04T10:36:33.773Z,14.74
2022-10-04T10:39:51.410Z,14.80
2022-10-04T10:43:01.553Z,14.73
2022-10-04T10:46:18.582Z,14.47
2022-10-04T10:49:22.003Z,14.18
2022-10-04T10:52:59.500Z,14.07
2022-10-04T11:03:32.509Z,14.11
2022-10-04T11:10:21.625Z,14.81
2022-10-04T11:13:38.608Z,14.92
2022-10-04T11:16:42.175Z,14.88
2022-10-04T11:19:56.759Z,14.47
2022-10-04T11:23:09.585Z,14.08
2022-10-04T11:26:26.072Z,13.95
2022-10-04T11:29:54.675Z,13.54
2022-10-04T11:37:28.085Z,13.50
2022-10-04T11:40:57.591Z,13.33
2022-10-04T11:44:34.711Z,13.17
2022-10-04T11:48:09.097Z,13.00
2022-10-04T11:51:16.683Z,12.77
2022-10-04T11:54:30.973Z,12.34
2022-10-04T11:58:18.216Z,11.88
2022-10-04T12:01:35.590Z,11.45
2022-10-04T12:05:03.624Z,11.26
2022-10-04T12:08:10.509Z,11.14
2022-10-04T12:11:23.353Z,11.15
2022-10-04T12:14:37.489Z,11.20
2022-10-04T12:17:45.560Z,11.28
2022-10-04T12:21:01.582Z,11.40
2022-10-04T12:24:22.205Z,11.54
2022-10-04T12:27:41.990Z,11.72
2022-10-04T12:39:46.284Z,11.96
2022-10-04T12:47:17.294Z,12.02
2022-10-04T12:50:11.063Z,12.06
2022-10-04T12:57:34.867Z,12.01
2022-10-04T13:01:32.002Z,12.14
2022-10-04T13:04:41.905Z,12.27
2022-10-04T13:08:15.980Z,12.45
2022-10-04T13:11:51.722Z,12.59
2022-10-04T13:18:23.165Z,12.99
2022-10-04T13:21:24.959Z,13.06
2022-10-04T13:24:10.081Z,13.10
2022-10-04T13:33:53.015Z,13.17
2022-10-04T13:37:29.354Z,13.36
2022-10-04T13:40:42.802Z,13.26
2022-10-04T13:51:53.593Z,15.89
2022-10-04T14:12:55.470Z,15.33
2022-10-04T14:16:48.652Z,15.51
2022-10-04T14:29:08.637Z,15.49
2022-10-04T14:35:32.729Z,16.36
2022-10-04T14:38:34.723Z,16.27
2022-10-04T14:41:28.084Z,16.25
2022-10-04T14:44:34.425Z,16.95
2022-10-04T14:48:00.879Z,18.00
2022-10-04T14:59:44.864Z,17.11
2022-10-04T15:03:05.427Z,16.57
2022-10-04T15:06:15.564Z,15.89
2022-10-04T15:09:22.931Z,15.27
2022-10-04T15:13:08.849Z,14.68
2022-10-04T15:16:21.153Z,14.13
2022-10-04T15:19:33.855Z,13.63
2022-10-04T15:22:43.540Z,13.19
2022-10-04T15:25:47.539Z,12.86
2022-10-04T15:29:08.552Z,12.62
2022-10-04T15:36:25.785Z,12.04
2022-10-04T15:39:43.063Z,11.83
2022-10-04T15:42:37.573Z,11.68
2022-10-04T15:45:46.670Z,11.52
2022-10-04T15:48:40.806Z,11.35
2022-10-04T15:51:40.535Z,11.19
2022-10-04T15:54:49.585Z,11.04
2022-10-04T15:57:58.571Z,10.88
2022-10-04T16:00:54.615Z,10.71
2022-10-04T16:04:01.546Z,10.53
2022-10-04T16:07:11.101Z,10.38
2022-10-04T16:10:17.590Z,10.24
2022-10-04T16:13:29.585Z,10.13
2022-10-04T16:16:28.895Z,10.01
2022-10-04T16:19:36.533Z,9.87
2022-10-04T16:22:42.497Z,9.73
2022-10-04T16:25:52.583Z,9.60
2022-10-04T16:28:55.538Z,9.47
2022-10-04T16:32:01.556Z,9.38
2022-10-04T16:35:07.585Z,9.29
2022-10-04T16:38:28.998Z,9.21
2022-10-04T16:41:36.602Z,9.12
2022-10-04T16:44:49.015Z,9.01
2022-10-04T16:47:26.451Z,8.95
2022-10-04T16:49:57.126Z,8.91
2022-10-04T16:52:39.148Z,8.90
2022-10-04T16:55:29.215Z,8.91
2022-10-04T16:58:41.467Z,8.95
2022-10-04T17:01:35.037Z,9.00
2022-10-04T17:04:25.449Z,9.06
2022-10-04T17:06:58.289Z,9.13
2022-10-04T17:09:37.353Z,9.19
2022-10-04T17:12:27.209Z,9.20
2022-10-04T17:15:09.276Z,9.18
2022-10-04T17:17:52.089Z,9.16
2022-10-04T17:20:49.135Z,9.13
2022-10-04T17:23:47.401Z,9.05
2022-10-04T17:26:49.517Z,8.95
2022-10-04T17:29:38.383Z,8.84
2022-10-04T17:32:25.749Z,8.75
2022-10-04T17:35:22.330Z,8.63
2022-10-04T17:38:04.348Z,8.53
2022-10-04T17:40:51.801Z,8.44
2022-10-04T17:43:59.406Z,8.33
2022-10-04T17:46:47.277Z,8.22
2022-10-04T17:49:59.049Z,8.13
2022-10-04T17:52:52.753Z,8.03
2022-10-04T17:55:28.962Z,7.96
2022-10-04T17:58:19.715Z,7.93
2022-10-04T18:01:07.678Z,7.88
2022-10-04T18:03:54.778Z,7.85
2022-10-04T18:06:40.243Z,7.80
2022-10-04T18:09:21.781Z,7.75
2022-10-04T18:12:04.667Z,7.74
2022-10-04T18:15:02.583Z,7.72
2022-10-04T18:18:33.563Z,7.71
2022-10-04T18:24:58.825Z,7.68
2022-10-04T18:28:20.551Z,7.66
2022-10-04T18:31:31.641Z,7.64
2022-10-04T18:34:45.537Z,7.58
2022-10-04T18:37:56.518Z,7.54
2022-10-04T18:41:19.542Z,7.49
2022-10-04T18:44:34.510Z,7.46
2022-10-04T18:51:09.572Z,7.47
2022-10-04T18:54:23.494Z,7.51
2022-10-04T19:00:56.618Z,7.59
2022-10-04T19:07:36.595Z,7.65
2022-10-04T19:17:45.567Z,7.67
2022-10-04T19:37:40.640Z,7.19
2022-10-04T19:40:52.480Z,7.09
2022-10-04T19:47:17.537Z,6.86
2022-10-04T19:50:16.955Z,6.75
2022-10-04T19:53:10.730Z,6.66
2022-10-04T19:55:54.266Z,6.60
2022-10-04T19:58:37.213Z,6.54
2022-10-04T20:01:19.556Z,6.49
2022-10-04T20:06:50.952Z,6.41
2022-10-04T20:09:30.831Z,6.41
2022-10-04T20:12:00.072Z,6.40
2022-10-04T20:14:39.679Z,6.41
2022-10-04T20:17:07.855Z,6.42
2022-10-04T20:19:41.031Z,6.42
2022-10-04T20:22:32.570Z,6.41
2022-10-04T20:25:01.250Z,6.41
2022-10-04T20:27:45.682Z,6.40
2022-10-04T20:30:14.891Z,6.37
2022-10-04T20:32:57.717Z,6.33
2022-10-04T20:35:43.637Z,6.27
2022-10-04T20:38:31.606Z,6.23
2022-10-04T20:41:00.364Z,6.19
2022-10-04T20:43:28.953Z,6.15
2022-10-04T20:45:58.671Z,6.13
2022-10-04T20:48:28.371Z,6.10
2022-10-04T20:50:56.466Z,6.07
2022-10-04T20:53:28.334Z,6.04
2022-10-04T20:56:15.766Z,6.04
2022-10-04T20:58:44.263Z,6.04
2022-10-04T21:01:41.587Z,6.05
2022-10-04T21:04:39.490Z,6.08
2022-10-04T21:07:12.573Z,6.08
2022-10-04T21:09:42.315Z,6.09
2022-10-04T21:12:24.678Z,6.10
2022-10-04T21:15:19.607Z,6.08
2022-10-04T21:18:01.717Z,6.04
2022-10-04T21:20:43.690Z,6.01
2022-10-04T21:23:29.500Z,5.97
2022-10-04T21:26:14.677Z,5.91
2022-10-04T21:28:43.063Z,5.87
2022-10-04T21:31:11.121Z,5.82
2022-10-04T21:33:39.125Z,5.78
2022-10-04T21:36:07.987Z,5.75
2022-10-04T21:38:36.370Z,5.73
2022-10-04T21:41:04.696Z,5.74
2022-10-04T21:43:33.446Z,5.73
2022-10-04T21:46:01.504Z,5.74
2022-10-04T21:48:29.469Z,5.77
2022-10-04T21:50:57.861Z,5.78
2022-10-04T21:53:25.808Z,5.81
2022-10-04T21:55:54.063Z,5.83
2022-10-04T21:58:22.589Z,5.83
2022-10-04T22:00:51.028Z,5.81
2022-10-04T22:03:19.360Z,5.78
2022-10-04T22:05:47.521Z,5.74
2022-10-04T22:08:15.563Z,5.68
2022-10-04T22:10:43.956Z,5.61
2022-10-04T22:13:12.040Z,5.54
2022-10-04T22:15:40.115Z,5.49
2022-10-04T22:18:08.343Z,5.45
2022-10-04T22:20:37.249Z,5.40
2022-10-04T22:23:28.795Z,5.38
2022-10-04T22:25:57.192Z,5.38
2022-10-04T22:28:28.055Z,5.37
2022-10-04T22:30:56.980Z,5.39
2022-10-04T22:33:42.912Z,5.41
2022-10-04T22:36:25.610Z,5.45
2022-10-04T22:39:00.757Z,5.47
2022-10-04T22:41:33.534Z,5.49
2022-10-04T22:44:18.705Z,5.49
2022-10-04T22:47:01.626Z,5.50
2022-10-04T22:49:35.416Z,5.51
2022-10-04T22:52:11.902Z,5.51
2022-10-04T22:54:43.669Z,5.48
2022-10-04T22:57:14.352Z,5.45
2022-10-04T22:59:46.698Z,5.40
2022-10-04T23:02:18.418Z,5.35
2022-10-04T23:05:17.518Z,5.30
2022-10-04T23:07:49.282Z,5.25
2022-10-04T23:10:20.023Z,5.24
2022-10-04T23:12:49.454Z,5.25
2022-10-04T23:15:20.874Z,5.27
2022-10-04T23:17:54.478Z,5.28
2022-10-04T23:20:52.580Z,5.29
2022-10-04T23:23:38.626Z,5.32
2022-10-04T23:26:29.516Z,5.34
2022-10-04T23:36:33.294Z,5.25
2022-10-04T23:40:00.594Z,5.18
2022-10-04T23:50:29.025Z,5.10
2022-10-04T23:53:36.527Z,5.13
2022-10-04T23:56:38.542Z,5.18
2022-10-04T23:59:51.465Z,5.20
